Impacts TAF Board
For situational awareness. Not to be used for flight planning purposes.
IDs:

KEWR - Newark Intl, NJ, US

Issued at 1500 UTC 24 Sep 2018
Updated at 1659 UTC 24 Sep 2018
Potential Impact None Slight Moderate High
Time<<25/05Z 25/06Z 25/07Z 25/08Z 25/09Z 25/10Z 25/11Z 25/12Z 25/13Z 25/14Z 25/15Z 25/16Z 25/17Z>>
Type PRVL PRVL PRVL PRVL PRVL PRVL PRVL PRVL PRVL PRVL PRVL PRVL PRVL
VIS 6 6 6 6 6 3 3 3 3 3 3 3 3
CIG 25 25 25 25 25 15 15 15 15 15 15 15 15
Cover BKN BKN BKN BKN BKN OVC OVC OVC OVC OVC OVC OVC OVC
FltCat MVFR MVFR MVFR MVFR MVFR MVFR MVFR MVFR MVFR MVFR MVFR MVFR MVFR
WX -RA -RA -RA -RA -RA RA RA RA RA RA RA RA RA
WDir 90 90 90 90 90 80 80 80 80 80 80 80 80
WSpd 12 12 12 12 12 11 11 11 11 11 11 11 11
WGst 19 19 19 19 19 18 18 18 18 18 18 18 18
Raw TAF
KEWR 241500Z 2415/2518 05012G18KT P6SM FEW025 BKN250
  TEMPO 2415/2416 BKN025
  FM241600 06013G20KT P6SM BKN025 BKN050
  FM242000 09013G18KT P6SM BKN025 BKN050
  FM250400 09012G19KT 6SM -RA BKN025 BKN050
  FM251000 08011G18KT 3SM RA BKN015 OVC035


METAR Board
Radar Display
Forecast Discussion
For situational awareness. Not to be used for flight planning purposes.